sensor_id;sensor_type;location;lat;lon;timestamp;P1;durP1;ratioP1;P2;durP2;ratioP2
36501;SDS011;25393;46.108;3.390;2023-04-06T00:00:51;6.57;;;3.10;;
36501;SDS011;25393;46.108;3.390;2023-04-06T00:03:18;6.17;;;3.10;;
36501;SDS011;25393;46.108;3.390;2023-04-06T00:05:46;9.00;;;3.20;;
36501;SDS011;25393;46.108;3.390;2023-04-06T00:08:13;9.50;;;3.17;;
36501;SDS011;25393;46.108;3.390;2023-04-06T00:10:40;10.87;;;4.50;;
36501;SDS011;25393;46.108;3.390;2023-04-06T00:13:06;6.30;;;3.43;;
36501;SDS011;25393;46.108;3.390;2023-04-06T00:15:33;7.87;;;3.53;;
36501;SDS011;25393;46.108;3.390;2023-04-06T00:18:00;5.37;;;3.43;;
36501;SDS011;25393;46.108;3.390;2023-04-06T00:20:27;6.17;;;3.30;;
36501;SDS011;25393;46.108;3.390;2023-04-06T00:22:54;10.13;;;3.57;;
36501;SDS011;25393;46.108;3.390;2023-04-06T00:25:20;7.30;;;2.67;;
36501;SDS011;25393;46.108;3.390;2023-04-06T00:27:50;6.83;;;3.30;;
36501;SDS011;25393;46.108;3.390;2023-04-06T00:30:16;6.37;;;3.07;;
36501;SDS011;25393;46.108;3.390;2023-04-06T00:32:43;5.57;;;2.60;;
36501;SDS011;25393;46.108;3.390;2023-04-06T00:35:10;6.40;;;2.90;;
36501;SDS011;25393;46.108;3.390;2023-04-06T00:37:37;5.10;;;3.13;;
36501;SDS011;25393;46.108;3.390;2023-04-06T00:40:03;7.07;;;3.30;;
36501;SDS011;25393;46.108;3.390;2023-04-06T00:42:31;10.57;;;4.23;;
36501;SDS011;25393;46.108;3.390;2023-04-06T00:44:58;9.20;;;4.47;;
36501;SDS011;25393;46.108;3.390;2023-04-06T00:47:26;10.83;;;4.43;;
36501;SDS011;25393;46.108;3.390;2023-04-06T00:49:56;12.20;;;3.57;;
36501;SDS011;25393;46.108;3.390;2023-04-06T00:52:22;6.70;;;3.00;;
36501;SDS011;25393;46.108;3.390;2023-04-06T00:54:51;7.33;;;3.20;;
36501;SDS011;25393;46.108;3.390;2023-04-06T00:57:18;11.87;;;3.37;;
36501;SDS011;25393;46.108;3.390;2023-04-06T00:59:44;6.27;;;3.13;;
36501;SDS011;25393;46.108;3.390;2023-04-06T01:02:12;8.03;;;3.30;;
36501;SDS011;25393;46.108;3.390;2023-04-06T01:04:38;6.73;;;3.20;;
36501;SDS011;25393;46.108;3.390;2023-04-06T01:07:05;7.27;;;3.13;;
36501;SDS011;25393;46.108;3.390;2023-04-06T01:09:32;9.53;;;4.03;;
36501;SDS011;25393;46.108;3.390;2023-04-06T01:11:59;9.80;;;4.37;;
36501;SDS011;25393;46.108;3.390;2023-04-06T01:14:25;11.30;;;4.97;;
36501;SDS011;25393;46.108;3.390;2023-04-06T01:16:52;7.93;;;4.17;;
36501;SDS011;25393;46.108;3.390;2023-04-06T01:19:19;8.67;;;3.90;;
36501;SDS011;25393;46.108;3.390;2023-04-06T01:21:47;11.50;;;5.27;;
36501;SDS011;25393;46.108;3.390;2023-04-06T01:24:15;11.80;;;5.53;;
36501;SDS011;25393;46.108;3.390;2023-04-06T01:26:42;10.53;;;4.30;;
36501;SDS011;25393;46.108;3.390;2023-04-06T01:29:09;14.53;;;5.43;;
36501;SDS011;25393;46.108;3.390;2023-04-06T01:31:36;10.33;;;4.43;;
36501;SDS011;25393;46.108;3.390;2023-04-06T01:34:03;14.00;;;4.53;;
36501;SDS011;25393;46.108;3.390;2023-04-06T01:36:30;7.70;;;3.60;;
36501;SDS011;25393;46.108;3.390;2023-04-06T01:38:57;6.17;;;3.10;;
36501;SDS011;25393;46.108;3.390;2023-04-06T01:41:24;6.77;;;3.83;;
36501;SDS011;25393;46.108;3.390;2023-04-06T01:43:53;5.30;;;2.97;;
36501;SDS011;25393;46.108;3.390;2023-04-06T01:46:25;7.40;;;3.10;;
36501;SDS011;25393;46.108;3.390;2023-04-06T01:48:54;5.27;;;2.90;;
36501;SDS011;25393;46.108;3.390;2023-04-06T01:51:23;7.07;;;3.17;;
36501;SDS011;25393;46.108;3.390;2023-04-06T01:53:53;7.63;;;3.43;;
36501;SDS011;25393;46.108;3.390;2023-04-06T01:56:19;8.33;;;3.23;;
36501;SDS011;25393;46.108;3.390;2023-04-06T01:58:46;9.10;;;3.70;;
36501;SDS011;25393;46.108;3.390;2023-04-06T02:01:13;12.57;;;4.07;;
36501;SDS011;25393;46.108;3.390;2023-04-06T02:03:39;10.47;;;3.83;;
36501;SDS011;25393;46.108;3.390;2023-04-06T02:06:06;8.83;;;3.93;;
36501;SDS011;25393;46.108;3.390;2023-04-06T02:08:32;9.97;;;4.23;;
36501;SDS011;25393;46.108;3.390;2023-04-06T02:10:59;6.77;;;2.80;;
36501;SDS011;25393;46.108;3.390;2023-04-06T02:13:25;9.50;;;3.47;;
36501;SDS011;25393;46.108;3.390;2023-04-06T02:15:53;4.73;;;2.57;;
36501;SDS011;25393;46.108;3.390;2023-04-06T02:18:19;6.63;;;2.83;;
36501;SDS011;25393;46.108;3.390;2023-04-06T02:20:46;4.77;;;2.33;;
36501;SDS011;25393;46.108;3.390;2023-04-06T02:23:13;3.50;;;2.07;;
36501;SDS011;25393;46.108;3.390;2023-04-06T02:25:39;4.07;;;1.80;;
36501;SDS011;25393;46.108;3.390;2023-04-06T02:28:07;4.77;;;2.53;;
36501;SDS011;25393;46.108;3.390;2023-04-06T02:30:33;5.37;;;2.67;;
36501;SDS011;25393;46.108;3.390;2023-04-06T02:33:01;6.70;;;2.57;;
36501;SDS011;25393;46.108;3.390;2023-04-06T02:35:31;8.20;;;2.80;;
36501;SDS011;25393;46.108;3.390;2023-04-06T02:37:58;8.30;;;3.10;;
36501;SDS011;25393;46.108;3.390;2023-04-06T02:40:25;4.67;;;2.37;;
36501;SDS011;25393;46.108;3.390;2023-04-06T02:42:52;5.33;;;2.23;;
36501;SDS011;25393;46.108;3.390;2023-04-06T02:45:18;6.13;;;2.67;;
36501;SDS011;25393;46.108;3.390;2023-04-06T02:47:45;3.60;;;2.23;;
36501;SDS011;25393;46.108;3.390;2023-04-06T02:50:11;4.37;;;2.47;;
36501;SDS011;25393;46.108;3.390;2023-04-06T02:52:38;7.47;;;2.33;;
36501;SDS011;25393;46.108;3.390;2023-04-06T02:55:05;4.37;;;2.13;;
36501;SDS011;25393;46.108;3.390;2023-04-06T02:57:33;7.40;;;2.80;;
36501;SDS011;25393;46.108;3.390;2023-04-06T03:00:03;5.70;;;2.10;;
36501;SDS011;25393;46.108;3.390;2023-04-06T03:02:33;4.00;;;2.20;;
36501;SDS011;25393;46.108;3.390;2023-04-06T03:05:03;4.20;;;2.20;;
36501;SDS011;25393;46.108;3.390;2023-04-06T03:07:33;3.03;;;1.93;;
36501;SDS011;25393;46.108;3.390;2023-04-06T03:09:59;4.47;;;2.20;;
36501;SDS011;25393;46.108;3.390;2023-04-06T03:12:28;5.40;;;1.93;;
36501;SDS011;25393;46.108;3.390;2023-04-06T03:14:54;3.90;;;2.30;;
36501;SDS011;25393;46.108;3.390;2023-04-06T03:17:21;4.07;;;1.73;;
36501;SDS011;25393;46.108;3.390;2023-04-06T03:19:47;7.17;;;2.43;;
36501;SDS011;25393;46.108;3.390;2023-04-06T03:22:14;3.83;;;2.20;;
36501;SDS011;25393;46.108;3.390;2023-04-06T03:24:40;4.57;;;2.13;;
36501;SDS011;25393;46.108;3.390;2023-04-06T03:27:07;3.70;;;1.80;;
36501;SDS011;25393;46.108;3.390;2023-04-06T03:29:33;9.23;;;2.03;;
36501;SDS011;25393;46.108;3.390;2023-04-06T03:32:00;3.80;;;2.43;;
36501;SDS011;25393;46.108;3.390;2023-04-06T03:34:29;4.90;;;2.17;;
36501;SDS011;25393;46.108;3.390;2023-04-06T03:36:55;7.50;;;2.87;;
36501;SDS011;25393;46.108;3.390;2023-04-06T03:39:35;4.13;;;2.13;;
36501;SDS011;25393;46.108;3.390;2023-04-06T03:42:02;4.77;;;2.40;;
36501;SDS011;25393;46.108;3.390;2023-04-06T03:44:36;4.47;;;2.10;;
36501;SDS011;25393;46.108;3.390;2023-04-06T03:47:06;5.67;;;2.40;;
36501;SDS011;25393;46.108;3.390;2023-04-06T03:49:33;4.97;;;2.20;;
36501;SDS011;25393;46.108;3.390;2023-04-06T03:52:05;8.30;;;2.80;;
36501;SDS011;25393;46.108;3.390;2023-04-06T03:54:32;5.73;;;2.70;;
36501;SDS011;25393;46.108;3.390;2023-04-06T03:57:05;7.50;;;2.47;;
36501;SDS011;25393;46.108;3.390;2023-04-06T03:59:32;5.43;;;2.37;;
36501;SDS011;25393;46.108;3.390;2023-04-06T04:02:01;6.47;;;2.13;;
36501;SDS011;25393;46.108;3.390;2023-04-06T04:04:27;2.90;;;1.90;;
36501;SDS011;25393;46.108;3.390;2023-04-06T04:06:54;7.67;;;1.87;;
36501;SDS011;25393;46.108;3.390;2023-04-06T04:09:21;4.03;;;2.00;;
36501;SDS011;25393;46.108;3.390;2023-04-06T04:11:47;4.40;;;2.30;;
36501;SDS011;25393;46.108;3.390;2023-04-06T04:14:14;5.67;;;2.77;;
36501;SDS011;25393;46.108;3.390;2023-04-06T04:16:40;4.47;;;2.20;;
36501;SDS011;25393;46.108;3.390;2023-04-06T04:19:08;5.37;;;2.70;;
36501;SDS011;25393;46.108;3.390;2023-04-06T04:21:41;4.77;;;3.13;;
36501;SDS011;25393;46.108;3.390;2023-04-06T04:24:12;6.83;;;3.60;;
36501;SDS011;25393;46.108;3.390;2023-04-06T04:26:39;4.13;;;2.27;;
36501;SDS011;25393;46.108;3.390;2023-04-06T04:29:06;4.60;;;2.17;;
36501;SDS011;25393;46.108;3.390;2023-04-06T04:31:33;5.13;;;2.10;;
36501;SDS011;25393;46.108;3.390;2023-04-06T04:34:02;3.70;;;2.00;;
36501;SDS011;25393;46.108;3.390;2023-04-06T04:36:28;3.87;;;2.07;;
36501;SDS011;25393;46.108;3.390;2023-04-06T04:38:55;4.57;;;2.47;;
36501;SDS011;25393;46.108;3.390;2023-04-06T04:41:22;5.17;;;2.50;;
36501;SDS011;25393;46.108;3.390;2023-04-06T04:43:48;5.53;;;2.47;;
36501;SDS011;25393;46.108;3.390;2023-04-06T04:46:15;5.47;;;2.33;;
36501;SDS011;25393;46.108;3.390;2023-04-06T04:48:42;4.30;;;2.33;;
36501;SDS011;25393;46.108;3.390;2023-04-06T04:51:08;7.63;;;2.40;;
36501;SDS011;25393;46.108;3.390;2023-04-06T04:53:35;3.27;;;1.67;;
36501;SDS011;25393;46.108;3.390;2023-04-06T04:56:04;3.83;;;1.93;;
36501;SDS011;25393;46.108;3.390;2023-04-06T04:58:33;6.63;;;2.97;;
36501;SDS011;25393;46.108;3.390;2023-04-06T05:00:59;3.60;;;2.50;;
36501;SDS011;25393;46.108;3.390;2023-04-06T05:03:26;13.17;;;2.93;;
36501;SDS011;25393;46.108;3.390;2023-04-06T05:05:53;7.10;;;3.40;;
36501;SDS011;25393;46.108;3.390;2023-04-06T05:08:20;7.57;;;3.33;;
36501;SDS011;25393;46.108;3.390;2023-04-06T05:10:46;8.03;;;3.73;;
36501;SDS011;25393;46.108;3.390;2023-04-06T05:13:14;6.47;;;3.37;;
36501;SDS011;25393;46.108;3.390;2023-04-06T05:15:41;7.73;;;3.70;;
36501;SDS011;25393;46.108;3.390;2023-04-06T05:18:08;5.60;;;3.23;;
36501;SDS011;25393;46.108;3.390;2023-04-06T05:20:35;8.10;;;2.70;;
36501;SDS011;25393;46.108;3.390;2023-04-06T05:23:04;4.77;;;2.60;;
36501;SDS011;25393;46.108;3.390;2023-04-06T05:25:31;9.07;;;3.73;;
36501;SDS011;25393;46.108;3.390;2023-04-06T05:27:58;6.23;;;2.47;;
36501;SDS011;25393;46.108;3.390;2023-04-06T05:30:25;5.30;;;2.50;;
36501;SDS011;25393;46.108;3.390;2023-04-06T05:32:52;7.47;;;3.07;;
36501;SDS011;25393;46.108;3.390;2023-04-06T05:35:19;3.57;;;2.40;;
36501;SDS011;25393;46.108;3.390;2023-04-06T05:37:46;5.00;;;2.90;;
36501;SDS011;25393;46.108;3.390;2023-04-06T05:40:12;6.53;;;2.50;;
36501;SDS011;25393;46.108;3.390;2023-04-06T05:42:39;6.23;;;2.77;;
36501;SDS011;25393;46.108;3.390;2023-04-06T05:45:08;9.03;;;3.00;;
36501;SDS011;25393;46.108;3.390;2023-04-06T05:47:40;8.27;;;2.57;;
36501;SDS011;25393;46.108;3.390;2023-04-06T05:50:10;6.17;;;2.70;;
36501;SDS011;25393;46.108;3.390;2023-04-06T05:52:37;5.33;;;2.73;;
36501;SDS011;25393;46.108;3.390;2023-04-06T05:55:10;5.63;;;2.67;;
36501;SDS011;25393;46.108;3.390;2023-04-06T05:57:37;6.73;;;2.77;;
36501;SDS011;25393;46.108;3.390;2023-04-06T06:00:05;4.53;;;2.87;;
36501;SDS011;25393;46.108;3.390;2023-04-06T06:02:35;5.37;;;2.30;;
36501;SDS011;25393;46.108;3.390;2023-04-06T06:05:05;4.37;;;2.10;;
36501;SDS011;25393;46.108;3.390;2023-04-06T06:07:34;4.57;;;2.37;;
36501;SDS011;25393;46.108;3.390;2023-04-06T06:10:00;10.73;;;2.20;;
36501;SDS011;25393;46.108;3.390;2023-04-06T06:12:27;6.03;;;2.30;;
36501;SDS011;25393;46.108;3.390;2023-04-06T06:14:54;3.47;;;2.13;;
36501;SDS011;25393;46.108;3.390;2023-04-06T06:17:21;4.30;;;2.20;;
36501;SDS011;25393;46.108;3.390;2023-04-06T06:19:48;5.93;;;1.97;;
36501;SDS011;25393;46.108;3.390;2023-04-06T06:22:14;5.93;;;2.50;;
36501;SDS011;25393;46.108;3.390;2023-04-06T06:24:41;4.07;;;2.30;;
36501;SDS011;25393;46.108;3.390;2023-04-06T06:27:08;6.03;;;3.03;;
36501;SDS011;25393;46.108;3.390;2023-04-06T06:29:34;3.73;;;2.30;;
36501;SDS011;25393;46.108;3.390;2023-04-06T06:32:01;3.73;;;2.20;;
36501;SDS011;25393;46.108;3.390;2023-04-06T06:34:28;6.10;;;3.20;;
36501;SDS011;25393;46.108;3.390;2023-04-06T06:36:54;4.83;;;2.33;;
36501;SDS011;25393;46.108;3.390;2023-04-06T06:39:21;4.70;;;2.50;;
36501;SDS011;25393;46.108;3.390;2023-04-06T06:41:48;6.67;;;2.53;;
36501;SDS011;25393;46.108;3.390;2023-04-06T06:44:14;5.37;;;2.50;;
36501;SDS011;25393;46.108;3.390;2023-04-06T06:46:41;6.70;;;2.53;;
36501;SDS011;25393;46.108;3.390;2023-04-06T06:49:08;3.10;;;2.37;;
36501;SDS011;25393;46.108;3.390;2023-04-06T06:51:40;3.27;;;2.17;;
36501;SDS011;25393;46.108;3.390;2023-04-06T06:54:07;9.47;;;2.40;;
36501;SDS011;25393;46.108;3.390;2023-04-06T06:56:38;6.43;;;2.30;;
36501;SDS011;25393;46.108;3.390;2023-04-06T06:59:05;5.60;;;2.77;;
36501;SDS011;25393;46.108;3.390;2023-04-06T07:01:35;4.73;;;2.57;;
36501;SDS011;25393;46.108;3.390;2023-04-06T07:04:04;5.53;;;2.47;;
36501;SDS011;25393;46.108;3.390;2023-04-06T07:06:37;4.40;;;2.47;;
36501;SDS011;25393;46.108;3.390;2023-04-06T07:09:04;4.17;;;2.43;;
36501;SDS011;25393;46.108;3.390;2023-04-06T07:11:32;4.90;;;2.50;;
36501;SDS011;25393;46.108;3.390;2023-04-06T07:13:59;6.20;;;3.43;;
36501;SDS011;25393;46.108;3.390;2023-04-06T07:16:25;4.77;;;2.67;;
36501;SDS011;25393;46.108;3.390;2023-04-06T07:18:52;4.40;;;2.70;;
36501;SDS011;25393;46.108;3.390;2023-04-06T07:21:19;6.37;;;2.83;;
36501;SDS011;25393;46.108;3.390;2023-04-06T07:23:46;12.93;;;3.90;;
36501;SDS011;25393;46.108;3.390;2023-04-06T07:26:14;5.67;;;3.53;;
36501;SDS011;25393;46.108;3.390;2023-04-06T07:28:41;6.63;;;2.73;;
36501;SDS011;25393;46.108;3.390;2023-04-06T07:31:08;5.97;;;3.33;;
36501;SDS011;25393;46.108;3.390;2023-04-06T07:33:36;4.93;;;3.00;;
36501;SDS011;25393;46.108;3.390;2023-04-06T07:36:05;6.07;;;2.87;;
36501;SDS011;25393;46.108;3.390;2023-04-06T07:38:32;7.90;;;3.42;;
36501;SDS011;25393;46.108;3.390;2023-04-06T07:40:59;5.15;;;2.80;;
36501;SDS011;25393;46.108;3.390;2023-04-06T07:43:26;8.50;;;2.72;;
36501;SDS011;25393;46.108;3.390;2023-04-06T07:45:53;4.45;;;2.83;;
36501;SDS011;25393;46.108;3.390;2023-04-06T07:48:20;5.30;;;3.35;;
36501;SDS011;25393;46.108;3.390;2023-04-06T07:50:47;5.45;;;2.55;;
36501;SDS011;25393;46.108;3.390;2023-04-06T07:53:14;7.00;;;2.60;;
36501;SDS011;25393;46.108;3.390;2023-04-06T07:55:41;4.28;;;2.63;;
36501;SDS011;25393;46.108;3.390;2023-04-06T07:58:07;5.47;;;2.70;;
36501;SDS011;25393;46.108;3.390;2023-04-06T08:00:36;5.07;;;2.33;;
36501;SDS011;25393;46.108;3.390;2023-04-06T08:03:11;9.60;;;2.88;;
36501;SDS011;25393;46.108;3.390;2023-04-06T08:05:41;8.38;;;3.65;;
36501;SDS011;25393;46.108;3.390;2023-04-06T08:08:08;5.10;;;2.55;;
36501;SDS011;25393;46.108;3.390;2023-04-06T08:10:36;5.25;;;2.92;;
36501;SDS011;25393;46.108;3.390;2023-04-06T08:13:02;7.07;;;2.70;;
36501;SDS011;25393;46.108;3.390;2023-04-06T08:15:29;5.15;;;2.53;;
36501;SDS011;25393;46.108;3.390;2023-04-06T08:17:56;5.78;;;2.80;;
36501;SDS011;25393;46.108;3.390;2023-04-06T08:20:23;4.50;;;2.70;;
36501;SDS011;25393;46.108;3.390;2023-04-06T08:22:50;7.30;;;3.22;;
36501;SDS011;25393;46.108;3.390;2023-04-06T08:25:18;6.07;;;2.90;;
36501;SDS011;25393;46.108;3.390;2023-04-06T08:27:45;5.32;;;3.10;;
36501;SDS011;25393;46.108;3.390;2023-04-06T08:30:12;5.47;;;2.70;;
36501;SDS011;25393;46.108;3.390;2023-04-06T08:32:41;4.72;;;2.80;;
36501;SDS011;25393;46.108;3.390;2023-04-06T08:35:11;5.43;;;3.20;;
36501;SDS011;25393;46.108;3.390;2023-04-06T08:37:38;6.05;;;3.00;;
36501;SDS011;25393;46.108;3.390;2023-04-06T08:40:07;7.15;;;3.53;;
36501;SDS011;25393;46.108;3.390;2023-04-06T08:42:44;7.25;;;2.60;;
36501;SDS011;25393;46.108;3.390;2023-04-06T08:45:16;6.68;;;3.03;;
36501;SDS011;25393;46.108;3.390;2023-04-06T08:47:44;5.32;;;2.97;;
36501;SDS011;25393;46.108;3.390;2023-04-06T08:50:11;5.20;;;2.65;;
36501;SDS011;25393;46.108;3.390;2023-04-06T08:52:41;5.20;;;2.72;;
36501;SDS011;25393;46.108;3.390;2023-04-06T08:55:09;7.65;;;3.13;;
36501;SDS011;25393;46.108;3.390;2023-04-06T08:57:36;3.97;;;2.85;;
36501;SDS011;25393;46.108;3.390;2023-04-06T09:00:08;6.45;;;3.38;;
36501;SDS011;25393;46.108;3.390;2023-04-06T09:02:40;6.35;;;2.90;;
36501;SDS011;25393;46.108;3.390;2023-04-06T09:05:10;8.63;;;3.17;;
36501;SDS011;25393;46.108;3.390;2023-04-06T09:07:37;5.43;;;2.80;;
36501;SDS011;25393;46.108;3.390;2023-04-06T09:10:05;5.38;;;2.50;;
36501;SDS011;25393;46.108;3.390;2023-04-06T09:12:33;6.30;;;3.25;;
36501;SDS011;25393;46.108;3.390;2023-04-06T09:15:01;7.88;;;3.38;;
36501;SDS011;25393;46.108;3.390;2023-04-06T09:17:29;4.75;;;2.80;;
36501;SDS011;25393;46.108;3.390;2023-04-06T09:20:02;4.20;;;2.38;;
36501;SDS011;25393;46.108;3.390;2023-04-06T09:22:36;5.85;;;2.33;;
36501;SDS011;25393;46.108;3.390;2023-04-06T09:25:06;5.22;;;2.72;;
36501;SDS011;25393;46.108;3.390;2023-04-06T09:27:36;6.22;;;2.47;;
36501;SDS011;25393;46.108;3.390;2023-04-06T09:30:06;8.55;;;2.47;;
36501;SDS011;25393;46.108;3.390;2023-04-06T09:32:53;7.07;;;2.70;;
36501;SDS011;25393;46.108;3.390;2023-04-06T09:35:22;5.00;;;2.50;;
36501;SDS011;25393;46.108;3.390;2023-04-06T09:37:50;5.03;;;2.88;;
36501;SDS011;25393;46.108;3.390;2023-04-06T09:40:18;6.90;;;2.60;;
36501;SDS011;25393;46.108;3.390;2023-04-06T09:42:46;6.35;;;2.50;;
36501;SDS011;25393;46.108;3.390;2023-04-06T09:45:14;4.75;;;2.72;;
36501;SDS011;25393;46.108;3.390;2023-04-06T09:47:42;6.35;;;3.10;;
36501;SDS011;25393;46.108;3.390;2023-04-06T09:50:12;7.22;;;2.83;;
36501;SDS011;25393;46.108;3.390;2023-04-06T09:52:46;5.20;;;2.33;;
36501;SDS011;25393;46.108;3.390;2023-04-06T09:55:34;5.30;;;2.30;;
36501;SDS011;25393;46.108;3.390;2023-04-06T09:58:07;6.65;;;2.72;;
36501;SDS011;25393;46.108;3.390;2023-04-06T10:00:49;6.97;;;2.30;;
36501;SDS011;25393;46.108;3.390;2023-04-06T10:03:29;6.38;;;2.40;;
36501;SDS011;25393;46.108;3.390;2023-04-06T10:06:03;5.55;;;2.17;;
36501;SDS011;25393;46.108;3.390;2023-04-06T10:08:41;5.22;;;3.10;;
36501;SDS011;25393;46.108;3.390;2023-04-06T10:11:12;3.92;;;2.40;;
36501;SDS011;25393;46.108;3.390;2023-04-06T10:13:41;8.00;;;5.68;;
36501;SDS011;25393;46.108;3.390;2023-04-06T10:16:11;4.90;;;3.08;;
36501;SDS011;25393;46.108;3.390;2023-04-06T10:18:41;6.85;;;2.50;;
36501;SDS011;25393;46.108;3.390;2023-04-06T10:21:14;3.63;;;2.47;;
36501;SDS011;25393;46.108;3.390;2023-04-06T10:24:00;5.28;;;4.13;;
36501;SDS011;25393;46.108;3.390;2023-04-06T10:26:28;7.22;;;4.63;;
36501;SDS011;25393;46.108;3.390;2023-04-06T10:28:55;6.78;;;3.95;;
36501;SDS011;25393;46.108;3.390;2023-04-06T10:31:28;6.35;;;3.65;;
36501;SDS011;25393;46.108;3.390;2023-04-06T10:34:01;6.18;;;4.10;;
36501;SDS011;25393;46.108;3.390;2023-04-06T10:36:31;8.02;;;4.90;;
36501;SDS011;25393;46.108;3.390;2023-04-06T10:39:01;5.75;;;4.18;;
36501;SDS011;25393;46.108;3.390;2023-04-06T10:44:32;5.25;;;3.55;;
36501;SDS011;25393;46.108;3.390;2023-04-06T10:47:18;8.40;;;4.10;;
36501;SDS011;25393;46.108;3.390;2023-04-06T10:49:45;8.40;;;4.45;;
36501;SDS011;25393;46.108;3.390;2023-04-06T10:52:12;5.60;;;4.43;;
36501;SDS011;25393;46.108;3.390;2023-04-06T10:54:42;9.95;;;5.30;;
36501;SDS011;25393;46.108;3.390;2023-04-06T10:57:10;6.45;;;4.75;;
36501;SDS011;25393;46.108;3.390;2023-04-06T10:59:44;6.03;;;4.70;;
36501;SDS011;25393;46.108;3.390;2023-04-06T11:02:18;8.18;;;5.18;;
36501;SDS011;25393;46.108;3.390;2023-04-06T11:04:54;5.72;;;5.05;;
36501;SDS011;25393;46.108;3.390;2023-04-06T11:07:23;7.55;;;4.57;;
36501;SDS011;25393;46.108;3.390;2023-04-06T11:09:51;5.30;;;4.75;;
36501;SDS011;25393;46.108;3.390;2023-04-06T11:12:42;6.13;;;5.32;;
36501;SDS011;25393;46.108;3.390;2023-04-06T11:15:12;6.10;;;3.97;;
36501;SDS011;25393;46.108;3.390;2023-04-06T11:17:42;4.60;;;4.15;;
36501;SDS011;25393;46.108;3.390;2023-04-06T11:20:10;6.35;;;4.82;;
36501;SDS011;25393;46.108;3.390;2023-04-06T11:22:47;7.57;;;4.88;;
36501;SDS011;25393;46.108;3.390;2023-04-06T11:25:15;5.50;;;4.35;;
36501;SDS011;25393;46.108;3.390;2023-04-06T11:27:43;7.07;;;4.18;;
36501;SDS011;25393;46.108;3.390;2023-04-06T11:30:13;8.07;;;4.57;;
36501;SDS011;25393;46.108;3.390;2023-04-06T11:32:44;5.63;;;4.65;;
36501;SDS011;25393;46.108;3.390;2023-04-06T11:35:19;7.50;;;5.15;;
36501;SDS011;25393;46.108;3.390;2023-04-06T11:37:45;5.10;;;4.60;;
36501;SDS011;25393;46.108;3.390;2023-04-06T11:40:12;6.80;;;4.32;;
36501;SDS011;25393;46.108;3.390;2023-04-06T11:42:39;7.07;;;5.30;;
36501;SDS011;25393;46.108;3.390;2023-04-06T11:45:07;7.75;;;5.05;;
36501;SDS011;25393;46.108;3.390;2023-04-06T11:47:36;5.90;;;4.78;;
36501;SDS011;25393;46.108;3.390;2023-04-06T11:50:11;8.02;;;5.32;;
36501;SDS011;25393;46.108;3.390;2023-04-06T11:52:40;5.22;;;4.60;;
36501;SDS011;25393;46.108;3.390;2023-04-06T11:55:13;4.78;;;4.30;;
36501;SDS011;25393;46.108;3.390;2023-04-06T11:57:44;6.82;;;4.65;;
36501;SDS011;25393;46.108;3.390;2023-04-06T12:00:14;8.75;;;2.78;;
36501;SDS011;25393;46.108;3.390;2023-04-06T12:02:47;6.32;;;2.72;;
36501;SDS011;25393;46.108;3.390;2023-04-06T12:05:14;6.40;;;3.05;;
36501;SDS011;25393;46.108;3.390;2023-04-06T12:07:41;5.40;;;2.47;;
36501;SDS011;25393;46.108;3.390;2023-04-06T12:10:12;5.55;;;2.17;;
36501;SDS011;25393;46.108;3.390;2023-04-06T12:12:39;4.22;;;3.08;;
36501;SDS011;25393;46.108;3.390;2023-04-06T12:15:17;6.32;;;2.70;;
36501;SDS011;25393;46.108;3.390;2023-04-06T12:17:44;5.15;;;2.78;;
36501;SDS011;25393;46.108;3.390;2023-04-06T12:20:10;5.28;;;3.08;;
36501;SDS011;25393;46.108;3.390;2023-04-06T12:22:50;3.80;;;2.72;;
36501;SDS011;25393;46.108;3.390;2023-04-06T12:25:17;4.97;;;2.28;;
36501;SDS011;25393;46.108;3.390;2023-04-06T12:27:43;5.22;;;2.53;;
36501;SDS011;25393;46.108;3.390;2023-04-06T12:30:12;5.93;;;2.53;;
36501;SDS011;25393;46.108;3.390;2023-04-06T12:32:39;8.52;;;3.17;;
36501;SDS011;25393;46.108;3.390;2023-04-06T12:35:06;3.05;;;1.73;;
36501;SDS011;25393;46.108;3.390;2023-04-06T12:37:35;5.57;;;2.03;;
36501;SDS011;25393;46.108;3.390;2023-04-06T12:40:01;5.57;;;2.40;;
36501;SDS011;25393;46.108;3.390;2023-04-06T12:42:29;5.68;;;2.08;;
36501;SDS011;25393;46.108;3.390;2023-04-06T12:44:56;3.53;;;2.10;;
36501;SDS011;25393;46.108;3.390;2023-04-06T12:47:23;4.95;;;2.42;;
36501;SDS011;25393;46.108;3.390;2023-04-06T12:49:52;4.50;;;2.63;;
36501;SDS011;25393;46.108;3.390;2023-04-06T12:52:20;6.30;;;3.33;;
36501;SDS011;25393;46.108;3.390;2023-04-06T12:54:47;4.82;;;2.78;;
36501;SDS011;25393;46.108;3.390;2023-04-06T12:57:16;5.03;;;4.28;;
36501;SDS011;25393;46.108;3.390;2023-04-06T12:59:43;5.85;;;4.85;;
36501;SDS011;25393;46.108;3.390;2023-04-06T13:02:10;8.63;;;4.57;;
36501;SDS011;25393;46.108;3.390;2023-04-06T13:04:40;7.13;;;4.60;;
36501;SDS011;25393;46.108;3.390;2023-04-06T13:07:09;8.13;;;4.80;;
36501;SDS011;25393;46.108;3.390;2023-04-06T13:09:35;5.95;;;4.82;;
36501;SDS011;25393;46.108;3.390;2023-04-06T13:12:02;6.70;;;4.80;;
36501;SDS011;25393;46.108;3.390;2023-04-06T13:14:29;6.95;;;5.07;;
36501;SDS011;25393;46.108;3.390;2023-04-06T13:16:55;5.43;;;4.43;;
36501;SDS011;25393;46.108;3.390;2023-04-06T13:19:22;6.30;;;4.68;;
36501;SDS011;25393;46.108;3.390;2023-04-06T13:21:48;6.80;;;4.60;;
36501;SDS011;25393;46.108;3.390;2023-04-06T13:24:15;6.85;;;5.07;;
36501;SDS011;25393;46.108;3.390;2023-04-06T13:26:45;10.77;;;5.05;;
36501;SDS011;25393;46.108;3.390;2023-04-06T13:29:15;5.30;;;4.43;;
36501;SDS011;25393;46.108;3.390;2023-04-06T13:31:42;4.97;;;4.43;;
36501;SDS011;25393;46.108;3.390;2023-04-06T13:34:09;7.18;;;4.85;;
36501;SDS011;25393;46.108;3.390;2023-04-06T13:36:36;6.97;;;4.35;;
36501;SDS011;25393;46.108;3.390;2023-04-06T13:39:02;5.20;;;4.30;;
36501;SDS011;25393;46.108;3.390;2023-04-06T13:41:29;5.70;;;4.68;;
36501;SDS011;25393;46.108;3.390;2023-04-06T13:43:56;7.32;;;5.22;;
36501;SDS011;25393;46.108;3.390;2023-04-06T13:46:24;5.72;;;4.68;;
36501;SDS011;25393;46.108;3.390;2023-04-06T13:48:51;6.55;;;5.10;;
36501;SDS011;25393;46.108;3.390;2023-04-06T13:51:18;6.82;;;4.70;;
36501;SDS011;25393;46.108;3.390;2023-04-06T13:53:47;10.35;;;6.40;;
36501;SDS011;25393;46.108;3.390;2023-04-06T13:56:16;11.93;;;6.07;;
36501;SDS011;25393;46.108;3.390;2023-04-06T13:58:42;8.48;;;5.55;;
36501;SDS011;25393;46.108;3.390;2023-04-06T14:01:09;4.88;;;4.20;;
36501;SDS011;25393;46.108;3.390;2023-04-06T14:03:37;6.70;;;4.53;;
36501;SDS011;25393;46.108;3.390;2023-04-06T14:06:12;5.30;;;3.92;;
36501;SDS011;25393;46.108;3.390;2023-04-06T14:08:42;6.50;;;4.97;;
36501;SDS011;25393;46.108;3.390;2023-04-06T14:11:12;12.13;;;4.90;;
36501;SDS011;25393;46.108;3.390;2023-04-06T14:13:39;6.15;;;4.72;;
36501;SDS011;25393;46.108;3.390;2023-04-06T14:16:06;5.30;;;4.10;;
36501;SDS011;25393;46.108;3.390;2023-04-06T14:18:33;5.13;;;4.60;;
36501;SDS011;25393;46.108;3.390;2023-04-06T14:21:00;7.57;;;4.70;;
36501;SDS011;25393;46.108;3.390;2023-04-06T14:23:27;6.40;;;4.35;;
36501;SDS011;25393;46.108;3.390;2023-04-06T14:26:01;4.60;;;4.13;;
36501;SDS011;25393;46.108;3.390;2023-04-06T14:28:32;4.57;;;4.15;;
36501;SDS011;25393;46.108;3.390;2023-04-06T14:30:59;4.88;;;4.20;;
36501;SDS011;25393;46.108;3.390;2023-04-06T14:33:26;3.63;;;3.30;;
36501;SDS011;25393;46.108;3.390;2023-04-06T14:35:53;3.75;;;3.45;;
36501;SDS011;25393;46.108;3.390;2023-04-06T14:38:20;3.50;;;3.30;;
36501;SDS011;25393;46.108;3.390;2023-04-06T14:40:47;3.33;;;3.13;;
36501;SDS011;25393;46.108;3.390;2023-04-06T14:43:14;5.35;;;3.40;;
36501;SDS011;25393;46.108;3.390;2023-04-06T14:45:44;4.13;;;2.00;;
36501;SDS011;25393;46.108;3.390;2023-04-06T14:48:10;2.08;;;1.60;;
36501;SDS011;25393;46.108;3.390;2023-04-06T14:50:38;4.53;;;4.07;;
36501;SDS011;25393;46.108;3.390;2023-04-06T14:53:05;2.10;;;1.02;;
36501;SDS011;25393;46.108;3.390;2023-04-06T14:55:32;6.00;;;1.00;;
36501;SDS011;25393;46.108;3.390;2023-04-06T14:57:58;1.40;;;0.88;;